createdAt,value
2018-12-11T00:03:34.919Z,3.90
2018-12-11T00:11:56.059Z,3.97
2018-12-11T00:20:17.123Z,3.27
2018-12-11T00:28:38.199Z,3.40
2018-12-11T00:36:59.263Z,3.57
2018-12-11T00:45:20.231Z,3.23
2018-12-11T00:53:41.290Z,3.40
2018-12-11T01:02:02.477Z,3.50
2018-12-11T01:10:23.531Z,3.27
2018-12-11T01:18:44.623Z,3.60
2018-12-11T01:27:05.674Z,3.60
2018-12-11T01:35:26.759Z,4.10
2018-12-11T01:43:47.836Z,4.40
2018-12-11T01:52:08.918Z,4.10
2018-12-11T02:00:29.975Z,4.37
2018-12-11T02:08:51.928Z,4.07
2018-12-11T02:17:13.295Z,3.50
2018-12-11T02:25:34.354Z,4.00
2018-12-11T02:33:55.520Z,3.63
2018-12-11T02:42:16.689Z,3.53
2018-12-11T02:50:37.850Z,2.90
2018-12-11T02:58:58.908Z,3.30
2018-12-11T03:07:19.974Z,3.07
2018-12-11T03:15:41.030Z,3.07
2018-12-11T03:24:02.085Z,3.20
2018-12-11T03:32:23.165Z,3.57
2018-12-11T03:40:44.315Z,2.97
2018-12-11T03:49:05.480Z,2.83
2018-12-11T03:57:26.554Z,3.50
2018-12-11T04:05:47.718Z,3.60
2018-12-11T04:14:08.788Z,3.67
2018-12-11T04:22:29.947Z,3.10
2018-12-11T04:30:50.998Z,3.47
2018-12-11T04:39:12.057Z,3.50
2018-12-11T04:47:33.231Z,2.93
2018-12-11T04:55:54.291Z,3.00
2018-12-11T05:04:15.352Z,2.83
2018-12-11T05:12:36.427Z,3.37
2018-12-11T05:20:57.475Z,3.30
2018-12-11T05:29:18.531Z,3.03
2018-12-11T05:37:39.587Z,3.17
2018-12-11T05:46:00.658Z,2.80
2018-12-11T05:54:21.818Z,3.20
2018-12-11T06:02:42.882Z,3.07
2018-12-11T06:11:05.135Z,3.60
2018-12-11T06:19:26.199Z,3.63
2018-12-11T06:27:47.263Z,3.40
2018-12-11T06:36:08.324Z,4.20
2018-12-11T06:44:29.383Z,3.80
2018-12-11T06:52:50.446Z,3.70
2018-12-11T07:01:11.527Z,3.77
2018-12-11T07:09:32.582Z,3.90
2018-12-11T07:17:53.643Z,3.80
2018-12-11T07:26:14.699Z,3.50
2018-12-11T07:34:35.816Z,4.20
2018-12-11T07:42:56.946Z,3.90
2018-12-11T07:51:18.022Z,3.63
2018-12-11T07:59:40.200Z,4.33
2018-12-11T08:08:01.344Z,5.10
2018-12-11T08:16:22.915Z,4.73
2018-12-11T08:24:43.973Z,4.90
2018-12-11T08:33:05.026Z,6.57
2018-12-11T08:41:26.243Z,5.67
2018-12-11T08:49:47.362Z,5.47
2018-12-11T08:58:08.430Z,5.70
2018-12-11T09:06:29.479Z,4.90
2018-12-11T09:14:50.505Z,4.97
2018-12-11T09:23:11.563Z,5.10
2018-12-11T09:31:32.667Z,4.93
2018-12-11T09:39:53.731Z,5.40
2018-12-11T09:48:14.811Z,5.33
2018-12-11T09:56:35.879Z,5.60
2018-12-11T10:04:57.039Z,6.80
2018-12-11T10:13:18.104Z,5.07
2018-12-11T10:21:39.267Z,5.50
2018-12-11T10:30:00.333Z,5.90
2018-12-11T10:38:21.391Z,5.10
2018-12-11T10:46:42.485Z,5.50
2018-12-11T10:55:03.539Z,6.30
2018-12-11T11:03:24.587Z,5.57
2018-12-11T11:11:45.651Z,6.87
2018-12-11T11:20:06.726Z,6.27
2018-12-11T11:28:27.786Z,6.00
2018-12-11T11:36:48.852Z,6.40
2018-12-11T11:45:10.867Z,6.20
2018-12-11T11:53:31.931Z,6.03
2018-12-11T12:01:52.992Z,6.43
2018-12-11T12:10:14.061Z,5.87
2018-12-11T12:18:35.231Z,5.40
2018-12-11T12:26:56.283Z,5.77
2018-12-11T12:35:17.343Z,5.93
2018-12-11T12:43:38.404Z,5.50
2018-12-11T12:51:59.458Z,5.10
2018-12-11T13:00:20.531Z,6.90
2018-12-11T13:08:41.588Z,4.97
2018-12-11T13:17:02.771Z,5.30
2018-12-11T13:25:23.827Z,4.87
2018-12-11T13:33:44.907Z,4.80
2018-12-11T13:42:05.971Z,5.93
2018-12-11T13:50:27.030Z,6.23
2018-12-11T13:58:48.079Z,5.20
2018-12-11T14:07:09.140Z,5.23
2018-12-11T14:15:30.224Z,5.03
2018-12-11T14:23:51.279Z,6.07
2018-12-11T14:32:12.343Z,6.17
2018-12-11T14:40:33.398Z,6.17
2018-12-11T14:48:54.451Z,5.90
2018-12-11T14:57:15.514Z,5.63
2018-12-11T15:05:36.738Z,6.53
2018-12-11T15:13:57.834Z,7.30
2018-12-11T15:22:18.991Z,6.20
2018-12-11T15:30:40.155Z,6.13
2018-12-11T15:39:01.303Z,6.37
2018-12-11T15:47:22.350Z,6.47
2018-12-11T15:55:43.495Z,6.47
2018-12-11T16:04:04.556Z,6.80
2018-12-11T16:12:25.695Z,6.53
2018-12-11T16:20:46.752Z,6.00
2018-12-11T16:29:07.820Z,5.87
2018-12-11T16:37:29.103Z,6.37
2018-12-11T16:45:50.151Z,6.33
2018-12-11T16:54:11.223Z,6.90
2018-12-11T17:02:32.282Z,8.20
2018-12-11T17:10:53.432Z,7.27
2018-12-11T17:19:14.499Z,8.23
2018-12-11T17:27:35.632Z,8.65
2018-12-11T17:35:57.839Z,10.33
2018-12-11T17:44:18.991Z,9.30
2018-12-11T17:52:40.124Z,9.07
2018-12-11T18:01:01.449Z,10.00
2018-12-11T18:09:22.702Z,11.80
2018-12-11T18:17:47.495Z,11.27
2018-12-11T18:26:08.579Z,9.67
2018-12-11T18:34:29.955Z,10.93
2018-12-11T18:42:51.094Z,9.57
2018-12-11T18:51:13.266Z,11.20
2018-12-11T18:59:34.440Z,11.57
2018-12-11T19:07:55.698Z,10.73
2018-12-11T19:16:17.803Z,12.90
2018-12-11T19:24:38.913Z,15.07
2018-12-11T19:33:00.067Z,13.80
2018-12-11T19:41:21.309Z,12.67
2018-12-11T19:49:42.403Z,13.07
2018-12-11T19:58:03.539Z,13.00
2018-12-11T20:06:24.664Z,13.23
2018-12-11T20:14:45.809Z,12.57
2018-12-11T20:23:08.044Z,12.17
2018-12-11T20:31:29.105Z,12.73
2018-12-11T20:39:50.469Z,13.73
2018-12-11T20:48:11.625Z,12.47
2018-12-11T20:56:32.809Z,14.30
2018-12-11T21:04:54.983Z,14.17
2018-12-11T21:13:17.112Z,13.50
2018-12-11T21:21:38.458Z,14.80
2018-12-11T21:29:59.534Z,13.20
2018-12-11T21:38:20.618Z,11.00
2018-12-11T21:46:41.682Z,11.37
2018-12-11T21:55:03.811Z,10.30
2018-12-11T22:03:25.099Z,11.67
2018-12-11T22:11:47.232Z,11.97
2018-12-11T22:20:08.294Z,12.47
2018-12-11T22:28:29.427Z,12.97
2018-12-11T22:36:50.584Z,13.60
2018-12-11T22:45:11.639Z,15.50
2018-12-11T22:53:33.699Z,14.60
2018-12-11T23:01:54.763Z,15.20
2018-12-11T23:10:16.930Z,14.37
2018-12-11T23:18:38.079Z,13.63
2018-12-11T23:26:59.219Z,14.10
2018-12-11T23:35:20.427Z,16.10
2018-12-11T23:43:41.489Z,14.97
2018-12-11T23:52:03.431Z,14.07
